sensor_id;sensor_type;location;lat;lon;timestamp;temperature;humidity
53904;DHT22;39812;52.430;16.936;2022-12-18T00:01:22;-4.60;99.90
53904;DHT22;39812;52.430;16.936;2022-12-18T00:03:49;-4.40;99.90
53904;DHT22;39812;52.430;16.936;2022-12-18T00:06:15;-4.50;99.90
53904;DHT22;39812;52.430;16.936;2022-12-18T00:08:42;-4.50;99.90
53904;DHT22;39812;52.430;16.936;2022-12-18T00:11:11;-4.50;99.90
53904;DHT22;39812;52.430;16.936;2022-12-18T00:13:37;-4.60;99.90
53904;DHT22;39812;52.430;16.936;2022-12-18T00:16:08;-4.70;99.90
53904;DHT22;39812;52.430;16.936;2022-12-18T00:18:34;-4.70;99.90
53904;DHT22;39812;52.430;16.936;2022-12-18T00:21:02;-4.80;99.90
53904;DHT22;39812;52.430;16.936;2022-12-18T00:23:28;-4.90;99.90
53904;DHT22;39812;52.430;16.936;2022-12-18T00:25:54;-4.90;99.90
53904;DHT22;39812;52.430;16.936;2022-12-18T00:28:20;-4.90;99.90
53904;DHT22;39812;52.430;16.936;2022-12-18T00:30:46;-5.00;99.90
53904;DHT22;39812;52.430;16.936;2022-12-18T00:33:11;-5.10;99.90
53904;DHT22;39812;52.430;16.936;2022-12-18T00:35:37;-5.10;99.90
53904;DHT22;39812;52.430;16.936;2022-12-18T00:38:02;-5.00;99.90
53904;DHT22;39812;52.430;16.936;2022-12-18T00:40:28;-5.00;99.90
53904;DHT22;39812;52.430;16.936;2022-12-18T00:42:53;-4.90;99.90
53904;DHT22;39812;52.430;16.936;2022-12-18T00:45:30;-4.90;99.90
53904;DHT22;39812;52.430;16.936;2022-12-18T00:47:56;-4.90;99.90
53904;DHT22;39812;52.430;16.936;2022-12-18T00:50:24;-4.90;99.90
53904;DHT22;39812;52.430;16.936;2022-12-18T00:52:50;-5.00;99.90
53904;DHT22;39812;52.430;16.936;2022-12-18T00:55:16;-5.10;99.90
53904;DHT22;39812;52.430;16.936;2022-12-18T00:57:42;-5.00;99.90
53904;DHT22;39812;52.430;16.936;2022-12-18T01:00:10;-5.10;99.90
53904;DHT22;39812;52.430;16.936;2022-12-18T01:02:36;-5.10;99.90
53904;DHT22;39812;52.430;16.936;2022-12-18T01:05:02;-5.00;99.90
53904;DHT22;39812;52.430;16.936;2022-12-18T01:07:27;-5.00;99.90
53904;DHT22;39812;52.430;16.936;2022-12-18T01:09:53;-5.10;99.90
53904;DHT22;39812;52.430;16.936;2022-12-18T01:12:19;-5.10;99.90
53904;DHT22;39812;52.430;16.936;2022-12-18T01:14:44;-5.10;99.90
53904;DHT22;39812;52.430;16.936;2022-12-18T01:17:10;-5.10;99.90
53904;DHT22;39812;52.430;16.936;2022-12-18T01:19:36;-5.10;99.90
53904;DHT22;39812;52.430;16.936;2022-12-18T01:22:01;-5.10;99.90
53904;DHT22;39812;52.430;16.936;2022-12-18T01:24:27;-5.10;99.90
53904;DHT22;39812;52.430;16.936;2022-12-18T01:26:52;-5.20;99.90
53904;DHT22;39812;52.430;16.936;2022-12-18T01:29:18;-5.20;99.90
53904;DHT22;39812;52.430;16.936;2022-12-18T01:31:43;-5.20;99.90
53904;DHT22;39812;52.430;16.936;2022-12-18T01:34:09;-5.40;99.90
53904;DHT22;39812;52.430;16.936;2022-12-18T01:36:37;-5.50;99.90
53904;DHT22;39812;52.430;16.936;2022-12-18T01:39:06;-5.50;99.90
53904;DHT22;39812;52.430;16.936;2022-12-18T01:41:33;-5.60;99.90
53904;DHT22;39812;52.430;16.936;2022-12-18T01:47:17;-5.60;99.90
53904;DHT22;39812;52.430;16.936;2022-12-18T01:49:43;-5.70;99.90
53904;DHT22;39812;52.430;16.936;2022-12-18T01:52:09;-5.70;99.90
53904;DHT22;39812;52.430;16.936;2022-12-18T01:54:34;-5.70;99.90
53904;DHT22;39812;52.430;16.936;2022-12-18T01:57:00;-5.70;99.90
53904;DHT22;39812;52.430;16.936;2022-12-18T01:59:26;-5.70;99.90
53904;DHT22;39812;52.430;16.936;2022-12-18T02:01:53;-5.70;99.90
53904;DHT22;39812;52.430;16.936;2022-12-18T02:06:44;-5.70;99.90
53904;DHT22;39812;52.430;16.936;2022-12-18T02:09:24;-5.70;99.90
53904;DHT22;39812;52.430;16.936;2022-12-18T02:14:46;-5.80;99.90
53904;DHT22;39812;52.430;16.936;2022-12-18T02:17:21;-5.80;99.90
53904;DHT22;39812;52.430;16.936;2022-12-18T02:22:26;-5.90;99.90
53904;DHT22;39812;52.430;16.936;2022-12-18T02:27:37;-5.90;99.90
53904;DHT22;39812;52.430;16.936;2022-12-18T02:30:05;-5.90;99.90
53904;DHT22;39812;52.430;16.936;2022-12-18T02:32:35;-6.00;99.90
53904;DHT22;39812;52.430;16.936;2022-12-18T02:35:04;-6.10;99.90
53904;DHT22;39812;52.430;16.936;2022-12-18T02:37:32;-6.30;99.90
53904;DHT22;39812;52.430;16.936;2022-12-18T02:39:59;-6.30;99.90
53904;DHT22;39812;52.430;16.936;2022-12-18T02:42:28;-6.30;99.90
53904;DHT22;39812;52.430;16.936;2022-12-18T02:44:53;-6.40;99.90
53904;DHT22;39812;52.430;16.936;2022-12-18T02:47:26;-6.40;99.90
53904;DHT22;39812;52.430;16.936;2022-12-18T02:56:12;-6.60;99.90
53904;DHT22;39812;52.430;16.936;2022-12-18T02:58:59;-6.70;99.90
53904;DHT22;39812;52.430;16.936;2022-12-18T03:04:09;-6.70;99.90
53904;DHT22;39812;52.430;16.936;2022-12-18T03:06:38;-6.80;99.90
53904;DHT22;39812;52.430;16.936;2022-12-18T03:09:15;-6.80;99.90
53904;DHT22;39812;52.430;16.936;2022-12-18T03:11:46;-6.90;99.90
53904;DHT22;39812;52.430;16.936;2022-12-18T03:14:34;-6.90;99.90
53904;DHT22;39812;52.430;16.936;2022-12-18T03:17:04;-6.90;99.90
53904;DHT22;39812;52.430;16.936;2022-12-18T03:19:32;-6.90;99.90
53904;DHT22;39812;52.430;16.936;2022-12-18T03:22:01;-6.80;99.90
53904;DHT22;39812;52.430;16.936;2022-12-18T03:24:29;-6.70;99.90
53904;DHT22;39812;52.430;16.936;2022-12-18T03:27:11;-6.60;99.90
53904;DHT22;39812;52.430;16.936;2022-12-18T03:30:03;-6.50;99.90
53904;DHT22;39812;52.430;16.936;2022-12-18T03:32:42;-6.50;99.90
53904;DHT22;39812;52.430;16.936;2022-12-18T03:35:10;-6.40;99.90
53904;DHT22;39812;52.430;16.936;2022-12-18T03:37:37;-6.30;99.90
53904;DHT22;39812;52.430;16.936;2022-12-18T03:40:04;-6.20;99.90
53904;DHT22;39812;52.430;16.936;2022-12-18T03:48:29;-6.20;99.90
53904;DHT22;39812;52.430;16.936;2022-12-18T03:51:05;-6.20;99.90
53904;DHT22;39812;52.430;16.936;2022-12-18T03:53:42;-6.20;99.90
53904;DHT22;39812;52.430;16.936;2022-12-18T03:56:09;-6.10;99.90
53904;DHT22;39812;52.430;16.936;2022-12-18T03:58:37;-6.10;99.90
53904;DHT22;39812;52.430;16.936;2022-12-18T04:01:05;-6.10;99.90
53904;DHT22;39812;52.430;16.936;2022-12-18T04:03:34;-6.00;99.90
53904;DHT22;39812;52.430;16.936;2022-12-18T04:06:02;-6.10;99.90
53904;DHT22;39812;52.430;16.936;2022-12-18T04:08:28;-6.00;99.90
53904;DHT22;39812;52.430;16.936;2022-12-18T04:10:54;-6.10;99.90
53904;DHT22;39812;52.430;16.936;2022-12-18T04:13:34;-6.10;99.90
53904;DHT22;39812;52.430;16.936;2022-12-18T04:16:00;-6.00;99.90
53904;DHT22;39812;52.430;16.936;2022-12-18T04:18:26;-6.00;99.90
53904;DHT22;39812;52.430;16.936;2022-12-18T04:20:52;-6.00;99.90
53904;DHT22;39812;52.430;16.936;2022-12-18T04:23:18;-6.10;99.90
53904;DHT22;39812;52.430;16.936;2022-12-18T04:25:43;-6.00;99.90
53904;DHT22;39812;52.430;16.936;2022-12-18T04:28:09;-6.00;99.90
53904;DHT22;39812;52.430;16.936;2022-12-18T04:30:34;-6.00;99.90
53904;DHT22;39812;52.430;16.936;2022-12-18T04:33:00;-6.10;99.90
53904;DHT22;39812;52.430;16.936;2022-12-18T04:35:26;-6.20;99.90
53904;DHT22;39812;52.430;16.936;2022-12-18T04:37:51;-6.20;99.90
53904;DHT22;39812;52.430;16.936;2022-12-18T04:40:17;-6.10;99.90
53904;DHT22;39812;52.430;16.936;2022-12-18T04:42:42;-6.10;99.90
53904;DHT22;39812;52.430;16.936;2022-12-18T04:45:08;-6.20;99.90
53904;DHT22;39812;52.430;16.936;2022-12-18T04:47:34;-6.30;99.90
53904;DHT22;39812;52.430;16.936;2022-12-18T04:49:59;-6.40;99.90
53904;DHT22;39812;52.430;16.936;2022-12-18T04:52:25;-6.40;99.90
53904;DHT22;39812;52.430;16.936;2022-12-18T04:54:50;-6.50;99.90
53904;DHT22;39812;52.430;16.936;2022-12-18T04:57:16;-6.50;99.90
53904;DHT22;39812;52.430;16.936;2022-12-18T04:59:43;-6.50;99.90
53904;DHT22;39812;52.430;16.936;2022-12-18T05:02:09;-6.50;99.90
53904;DHT22;39812;52.430;16.936;2022-12-18T05:04:34;-6.50;99.90
53904;DHT22;39812;52.430;16.936;2022-12-18T05:07:00;-6.40;99.90
53904;DHT22;39812;52.430;16.936;2022-12-18T05:09:25;-6.40;99.90
53904;DHT22;39812;52.430;16.936;2022-12-18T05:11:51;-6.40;99.90
53904;DHT22;39812;52.430;16.936;2022-12-18T05:14:17;-6.40;99.90
53904;DHT22;39812;52.430;16.936;2022-12-18T05:16:42;-6.40;99.90
53904;DHT22;39812;52.430;16.936;2022-12-18T05:19:08;-6.40;99.90
53904;DHT22;39812;52.430;16.936;2022-12-18T05:21:33;-6.40;99.90
53904;DHT22;39812;52.430;16.936;2022-12-18T05:23:59;-6.30;99.90
53904;DHT22;39812;52.430;16.936;2022-12-18T05:26:25;-6.30;99.90
53904;DHT22;39812;52.430;16.936;2022-12-18T05:28:50;-6.30;99.90
53904;DHT22;39812;52.430;16.936;2022-12-18T05:31:16;-6.20;99.90
53904;DHT22;39812;52.430;16.936;2022-12-18T05:33:41;-6.10;99.90
53904;DHT22;39812;52.430;16.936;2022-12-18T05:36:08;-6.00;99.90
53904;DHT22;39812;52.430;16.936;2022-12-18T05:38:36;-6.10;99.90
53904;DHT22;39812;52.430;16.936;2022-12-18T05:41:02;-6.10;99.90
53904;DHT22;39812;52.430;16.936;2022-12-18T05:43:29;-6.10;99.90
53904;DHT22;39812;52.430;16.936;2022-12-18T05:45:55;-6.10;99.90
53904;DHT22;39812;52.430;16.936;2022-12-18T05:48:22;-6.00;99.90
53904;DHT22;39812;52.430;16.936;2022-12-18T05:50:48;-6.00;99.90
53904;DHT22;39812;52.430;16.936;2022-12-18T05:53:16;-6.00;99.90
53904;DHT22;39812;52.430;16.936;2022-12-18T05:55:43;-6.00;99.90
53904;DHT22;39812;52.430;16.936;2022-12-18T05:58:10;-5.90;99.90
53904;DHT22;39812;52.430;16.936;2022-12-18T06:00:38;-6.00;99.90
53904;DHT22;39812;52.430;16.936;2022-12-18T06:03:07;-6.00;99.90
53904;DHT22;39812;52.430;16.936;2022-12-18T06:05:38;-6.00;99.90
53904;DHT22;39812;52.430;16.936;2022-12-18T06:08:04;-6.10;99.90
53904;DHT22;39812;52.430;16.936;2022-12-18T06:10:30;-6.20;99.90
53904;DHT22;39812;52.430;16.936;2022-12-18T06:12:56;-6.20;99.90
53904;DHT22;39812;52.430;16.936;2022-12-18T06:15:21;-6.20;99.90
53904;DHT22;39812;52.430;16.936;2022-12-18T06:17:47;-6.20;99.90
53904;DHT22;39812;52.430;16.936;2022-12-18T06:20:13;-6.20;99.90
53904;DHT22;39812;52.430;16.936;2022-12-18T06:22:38;-6.10;99.90
53904;DHT22;39812;52.430;16.936;2022-12-18T06:25:04;-6.10;99.90
53904;DHT22;39812;52.430;16.936;2022-12-18T06:27:30;-6.10;99.90
53904;DHT22;39812;52.430;16.936;2022-12-18T06:29:56;-6.10;99.90
53904;DHT22;39812;52.430;16.936;2022-12-18T06:32:21;-6.10;99.90
53904;DHT22;39812;52.430;16.936;2022-12-18T06:34:47;-6.00;99.90
53904;DHT22;39812;52.430;16.936;2022-12-18T06:37:13;-6.00;99.90
53904;DHT22;39812;52.430;16.936;2022-12-18T06:39:38;-6.00;99.90
53904;DHT22;39812;52.430;16.936;2022-12-18T06:42:04;-6.10;99.90
53904;DHT22;39812;52.430;16.936;2022-12-18T06:44:30;-6.20;99.90
53904;DHT22;39812;52.430;16.936;2022-12-18T06:46:55;-6.20;99.90
53904;DHT22;39812;52.430;16.936;2022-12-18T06:49:21;-6.20;99.90
53904;DHT22;39812;52.430;16.936;2022-12-18T06:51:47;-6.20;99.90
53904;DHT22;39812;52.430;16.936;2022-12-18T06:54:12;-6.10;99.90
53904;DHT22;39812;52.430;16.936;2022-12-18T06:56:38;-6.20;99.90
53904;DHT22;39812;52.430;16.936;2022-12-18T06:59:03;-6.20;99.90
53904;DHT22;39812;52.430;16.936;2022-12-18T07:01:29;-6.10;99.90
53904;DHT22;39812;52.430;16.936;2022-12-18T07:03:56;-6.00;99.90
53904;DHT22;39812;52.430;16.936;2022-12-18T07:06:24;-5.90;99.90
53904;DHT22;39812;52.430;16.936;2022-12-18T07:08:51;-5.80;99.90
53904;DHT22;39812;52.430;16.936;2022-12-18T07:11:17;-5.70;99.90
53904;DHT22;39812;52.430;16.936;2022-12-18T07:13:44;-5.80;99.90
53904;DHT22;39812;52.430;16.936;2022-12-18T07:16:15;-5.80;99.90
53904;DHT22;39812;52.430;16.936;2022-12-18T07:18:41;-6.00;99.90
53904;DHT22;39812;52.430;16.936;2022-12-18T07:21:10;-6.20;99.90
53904;DHT22;39812;52.430;16.936;2022-12-18T07:23:36;-6.30;99.90
53904;DHT22;39812;52.430;16.936;2022-12-18T07:26:07;-6.30;99.90
53904;DHT22;39812;52.430;16.936;2022-12-18T07:28:35;-6.30;99.90
53904;DHT22;39812;52.430;16.936;2022-12-18T07:31:05;-6.20;99.90
53904;DHT22;39812;52.430;16.936;2022-12-18T07:33:32;-6.10;99.90
53904;DHT22;39812;52.430;16.936;2022-12-18T07:36:02;-6.10;99.90
53904;DHT22;39812;52.430;16.936;2022-12-18T07:38:29;-6.00;99.90
53904;DHT22;39812;52.430;16.936;2022-12-18T07:40:54;-6.00;99.90
53904;DHT22;39812;52.430;16.936;2022-12-18T07:43:25;-5.90;99.90
53904;DHT22;39812;52.430;16.936;2022-12-18T07:45:50;-5.90;99.90
53904;DHT22;39812;52.430;16.936;2022-12-18T07:48:16;-5.80;99.90
53904;DHT22;39812;52.430;16.936;2022-12-18T07:50:41;-5.80;99.90
53904;DHT22;39812;52.430;16.936;2022-12-18T07:53:07;-5.80;99.90
53904;DHT22;39812;52.430;16.936;2022-12-18T07:55:32;-5.80;99.90
53904;DHT22;39812;52.430;16.936;2022-12-18T07:58:01;-5.80;99.90
53904;DHT22;39812;52.430;16.936;2022-12-18T08:00:27;-5.70;99.90
53904;DHT22;39812;52.430;16.936;2022-12-18T08:02:53;-5.80;99.90
53904;DHT22;39812;52.430;16.936;2022-12-18T08:05:19;-5.80;99.90
53904;DHT22;39812;52.430;16.936;2022-12-18T08:07:46;-5.60;99.90
53904;DHT22;39812;52.430;16.936;2022-12-18T08:10:11;-5.70;99.90
53904;DHT22;39812;52.430;16.936;2022-12-18T08:12:37;-5.70;99.90
53904;DHT22;39812;52.430;16.936;2022-12-18T08:15:03;-5.70;99.90
53904;DHT22;39812;52.430;16.936;2022-12-18T08:17:28;-5.70;99.90
53904;DHT22;39812;52.430;16.936;2022-12-18T08:19:55;-5.70;99.90
53904;DHT22;39812;52.430;16.936;2022-12-18T08:22:21;-5.70;99.90
53904;DHT22;39812;52.430;16.936;2022-12-18T08:24:46;-5.70;99.90
53904;DHT22;39812;52.430;16.936;2022-12-18T08:27:12;-5.70;99.90
53904;DHT22;39812;52.430;16.936;2022-12-18T08:29:38;-5.60;99.90
53904;DHT22;39812;52.430;16.936;2022-12-18T08:32:03;-5.70;99.90
53904;DHT22;39812;52.430;16.936;2022-12-18T08:34:29;-5.50;99.90
53904;DHT22;39812;52.430;16.936;2022-12-18T08:36:55;-5.30;99.90
53904;DHT22;39812;52.430;16.936;2022-12-18T08:39:20;-5.20;99.90
53904;DHT22;39812;52.430;16.936;2022-12-18T08:41:46;-5.30;99.90
53904;DHT22;39812;52.430;16.936;2022-12-18T08:44:31;-5.20;99.90
53904;DHT22;39812;52.430;16.936;2022-12-18T08:47:04;-5.20;99.90
53904;DHT22;39812;52.430;16.936;2022-12-18T08:49:29;-5.30;99.90
53904;DHT22;39812;52.430;16.936;2022-12-18T08:51:56;-5.10;99.90
53904;DHT22;39812;52.430;16.936;2022-12-18T08:54:25;-5.20;99.90
53904;DHT22;39812;52.430;16.936;2022-12-18T08:56:51;-5.10;99.90
53904;DHT22;39812;52.430;16.936;2022-12-18T08:59:18;-5.10;99.90
53904;DHT22;39812;52.430;16.936;2022-12-18T09:01:44;-5.00;99.90
53904;DHT22;39812;52.430;16.936;2022-12-18T09:04:10;-4.90;99.90
53904;DHT22;39812;52.430;16.936;2022-12-18T09:06:36;-4.90;99.90
53904;DHT22;39812;52.430;16.936;2022-12-18T09:09:03;-4.70;99.90
53904;DHT22;39812;52.430;16.936;2022-12-18T09:11:30;-4.70;99.90
53904;DHT22;39812;52.430;16.936;2022-12-18T09:13:57;-4.60;99.90
53904;DHT22;39812;52.430;16.936;2022-12-18T09:16:24;-4.50;99.90
53904;DHT22;39812;52.430;16.936;2022-12-18T09:18:50;-4.70;99.90
53904;DHT22;39812;52.430;16.936;2022-12-18T09:21:20;-4.80;99.90
53904;DHT22;39812;52.430;16.936;2022-12-18T09:23:53;-4.70;99.90
53904;DHT22;39812;52.430;16.936;2022-12-18T09:26:24;-4.50;99.90
53904;DHT22;39812;52.430;16.936;2022-12-18T09:28:50;-4.40;99.90
53904;DHT22;39812;52.430;16.936;2022-12-18T09:31:17;-4.40;99.90
53904;DHT22;39812;52.430;16.936;2022-12-18T09:33:43;-4.30;99.90
53904;DHT22;39812;52.430;16.936;2022-12-18T09:36:12;-4.20;99.90
53904;DHT22;39812;52.430;16.936;2022-12-18T09:38:38;-4.00;99.90
53904;DHT22;39812;52.430;16.936;2022-12-18T09:41:05;-4.00;99.90
53904;DHT22;39812;52.430;16.936;2022-12-18T09:43:40;-4.00;99.90
53904;DHT22;39812;52.430;16.936;2022-12-18T09:46:10;-3.80;99.90
53904;DHT22;39812;52.430;16.936;2022-12-18T09:48:44;-3.90;99.90
53904;DHT22;39812;52.430;16.936;2022-12-18T09:51:28;-3.80;99.90
53904;DHT22;39812;52.430;16.936;2022-12-18T09:54:07;-3.90;99.90
53904;DHT22;39812;52.430;16.936;2022-12-18T09:56:40;-3.90;99.90
53904;DHT22;39812;52.430;16.936;2022-12-18T09:59:18;-4.10;99.90
53904;DHT22;39812;52.430;16.936;2022-12-18T10:01:45;-3.90;99.90
53904;DHT22;39812;52.430;16.936;2022-12-18T10:04:11;-3.80;99.90
53904;DHT22;39812;52.430;16.936;2022-12-18T10:06:48;-3.60;99.90
53904;DHT22;39812;52.430;16.936;2022-12-18T10:09:49;-3.40;99.90
53904;DHT22;39812;52.430;16.936;2022-12-18T10:12:21;-3.40;99.90
53904;DHT22;39812;52.430;16.936;2022-12-18T10:15:22;-3.30;99.90
53904;DHT22;39812;52.430;16.936;2022-12-18T10:20:48;-3.40;99.90
53904;DHT22;39812;52.430;16.936;2022-12-18T10:23:51;-3.40;99.90
53904;DHT22;39812;52.430;16.936;2022-12-18T10:26:18;-3.40;99.90
53904;DHT22;39812;52.430;16.936;2022-12-18T10:28:44;-3.40;99.90
53904;DHT22;39812;52.430;16.936;2022-12-18T10:31:18;-3.40;99.90
53904;DHT22;39812;52.430;16.936;2022-12-18T10:33:44;-3.50;99.90
53904;DHT22;39812;52.430;16.936;2022-12-18T10:36:09;-3.50;99.90
53904;DHT22;39812;52.430;16.936;2022-12-18T10:38:35;-3.40;99.90
53904;DHT22;39812;52.430;16.936;2022-12-18T10:41:02;-3.40;99.90
53904;DHT22;39812;52.430;16.936;2022-12-18T10:43:30;-3.40;99.90
53904;DHT22;39812;52.430;16.936;2022-12-18T10:46:14;-3.20;99.90
53904;DHT22;39812;52.430;16.936;2022-12-18T10:48:48;-3.20;99.90
53904;DHT22;39812;52.430;16.936;2022-12-18T10:51:29;-3.20;99.90
53904;DHT22;39812;52.430;16.936;2022-12-18T10:54:20;-3.10;99.90
53904;DHT22;39812;52.430;16.936;2022-12-18T10:56:46;-2.80;99.90
53904;DHT22;39812;52.430;16.936;2022-12-18T10:59:14;-2.80;99.90
53904;DHT22;39812;52.430;16.936;2022-12-18T11:01:54;-2.70;99.90
53904;DHT22;39812;52.430;16.936;2022-12-18T11:04:28;-2.70;99.90
53904;DHT22;39812;52.430;16.936;2022-12-18T11:09:35;-2.80;99.90
53904;DHT22;39812;52.430;16.936;2022-12-18T11:12:04;-3.00;99.90
53904;DHT22;39812;52.430;16.936;2022-12-18T11:14:43;-3.00;99.90
53904;DHT22;39812;52.430;16.936;2022-12-18T11:17:22;-2.70;99.90
53904;DHT22;39812;52.430;16.936;2022-12-18T11:19:55;-2.80;99.90
53904;DHT22;39812;52.430;16.936;2022-12-18T11:22:26;-2.60;99.90
53904;DHT22;39812;52.430;16.936;2022-12-18T11:25:00;-2.70;99.90
53904;DHT22;39812;52.430;16.936;2022-12-18T11:27:27;-3.00;99.90
53904;DHT22;39812;52.430;16.936;2022-12-18T11:32:51;-2.90;99.90
53904;DHT22;39812;52.430;16.936;2022-12-18T11:35:21;-2.70;99.90
53904;DHT22;39812;52.430;16.936;2022-12-18T11:37:59;-2.50;99.90
53904;DHT22;39812;52.430;16.936;2022-12-18T11:40:36;-2.40;99.90
53904;DHT22;39812;52.430;16.936;2022-12-18T11:43:14;-2.40;99.90
53904;DHT22;39812;52.430;16.936;2022-12-18T11:45:47;-2.30;99.90
53904;DHT22;39812;52.430;16.936;2022-12-18T11:50:54;-2.40;99.90
53904;DHT22;39812;52.430;16.936;2022-12-18T11:53:20;-2.50;99.90
53904;DHT22;39812;52.430;16.936;2022-12-18T11:56:03;-2.50;99.90
53904;DHT22;39812;52.430;16.936;2022-12-18T11:58:46;-2.70;99.90
53904;DHT22;39812;52.430;16.936;2022-12-18T12:01:52;-2.60;99.90
53904;DHT22;39812;52.430;16.936;2022-12-18T12:04:47;-2.80;99.90
53904;DHT22;39812;52.430;16.936;2022-12-18T12:07:44;-2.70;99.90
53904;DHT22;39812;52.430;16.936;2022-12-18T12:10:30;-2.60;99.90
53904;DHT22;39812;52.430;16.936;2022-12-18T12:15:41;-2.40;99.90
53904;DHT22;39812;52.430;16.936;2022-12-18T12:21:20;-2.40;99.90
53904;DHT22;39812;52.430;16.936;2022-12-18T12:29:13;-2.30;99.90
53904;DHT22;39812;52.430;16.936;2022-12-18T12:34:34;-2.20;99.90
53904;DHT22;39812;52.430;16.936;2022-12-18T12:39:59;-1.90;99.90
53904;DHT22;39812;52.430;16.936;2022-12-18T12:42:46;-2.00;99.90
53904;DHT22;39812;52.430;16.936;2022-12-18T12:45:52;-2.00;99.90
53904;DHT22;39812;52.430;16.936;2022-12-18T12:48:49;-2.20;99.90
53904;DHT22;39812;52.430;16.936;2022-12-18T12:51:34;-2.20;99.90
53904;DHT22;39812;52.430;16.936;2022-12-18T12:54:03;-2.20;99.90
53904;DHT22;39812;52.430;16.936;2022-12-18T13:00:00;-2.40;99.90
53904;DHT22;39812;52.430;16.936;2022-12-18T13:02:47;-2.40;99.90
53904;DHT22;39812;52.430;16.936;2022-12-18T13:05:23;-2.50;99.90
53904;DHT22;39812;52.430;16.936;2022-12-18T13:08:03;-2.50;99.90
53904;DHT22;39812;52.430;16.936;2022-12-18T13:10:37;-2.40;99.90
53904;DHT22;39812;52.430;16.936;2022-12-18T13:18:10;-2.40;99.90
53904;DHT22;39812;52.430;16.936;2022-12-18T13:20:43;-2.40;99.90
53904;DHT22;39812;52.430;16.936;2022-12-18T13:23:39;-2.40;99.90
53904;DHT22;39812;52.430;16.936;2022-12-18T13:34:18;-2.50;99.90
53904;DHT22;39812;52.430;16.936;2022-12-18T13:36:45;-2.60;99.90
53904;DHT22;39812;52.430;16.936;2022-12-18T13:39:15;-2.70;99.90
53904;DHT22;39812;52.430;16.936;2022-12-18T13:42:31;-2.80;99.90
53904;DHT22;39812;52.430;16.936;2022-12-18T13:44:59;-2.90;99.90
53904;DHT22;39812;52.430;16.936;2022-12-18T13:47:33;-3.00;99.90
53904;DHT22;39812;52.430;16.936;2022-12-18T13:50:03;-3.00;99.90
53904;DHT22;39812;52.430;16.936;2022-12-18T13:52:37;-3.00;99.90
53904;DHT22;39812;52.430;16.936;2022-12-18T13:55:06;-2.90;99.90
53904;DHT22;39812;52.430;16.936;2022-12-18T13:57:39;-2.90;99.90
53904;DHT22;39812;52.430;16.936;2022-12-18T14:02:50;-2.90;99.90
53904;DHT22;39812;52.430;16.936;2022-12-18T14:05:28;-3.00;99.90
53904;DHT22;39812;52.430;16.936;2022-12-18T14:08:28;-3.20;99.90
53904;DHT22;39812;52.430;16.936;2022-12-18T14:10:56;-3.20;99.90
53904;DHT22;39812;52.430;16.936;2022-12-18T14:13:28;-3.10;99.90
53904;DHT22;39812;52.430;16.936;2022-12-18T14:15:55;-3.20;99.90
53904;DHT22;39812;52.430;16.936;2022-12-18T14:18:29;-3.30;99.90
53904;DHT22;39812;52.430;16.936;2022-12-18T14:20:59;-3.40;99.90
53904;DHT22;39812;52.430;16.936;2022-12-18T14:23:37;-3.40;99.90
53904;DHT22;39812;52.430;16.936;2022-12-18T14:28:45;-3.40;99.90
53904;DHT22;39812;52.430;16.936;2022-12-18T14:31:22;-3.30;99.90
53904;DHT22;39812;52.430;16.936;2022-12-18T14:33:48;-3.40;99.90
53904;DHT22;39812;52.430;16.936;2022-12-18T14:36:19;-3.50;99.90
53904;DHT22;39812;52.430;16.936;2022-12-18T14:38:50;-3.40;99.90
53904;DHT22;39812;52.430;16.936;2022-12-18T14:41:17;-3.40;99.90
53904;DHT22;39812;52.430;16.936;2022-12-18T14:43:45;-3.40;99.90
53904;DHT22;39812;52.430;16.936;2022-12-18T14:46:34;-3.60;99.90
53904;DHT22;39812;52.430;16.936;2022-12-18T14:49:14;-3.70;99.90
53904;DHT22;39812;52.430;16.936;2022-12-18T14:51:49;-3.80;99.90
53904;DHT22;39812;52.430;16.936;2022-12-18T14:54:17;-3.80;99.90
53904;DHT22;39812;52.430;16.936;2022-12-18T14:57:04;-3.80;99.90
53904;DHT22;39812;52.430;16.936;2022-12-18T14:59:31;-3.90;99.90
53904;DHT22;39812;52.430;16.936;2022-12-18T15:04:39;-4.10;99.90
53904;DHT22;39812;52.430;16.936;2022-12-18T15:07:18;-4.10;99.90
53904;DHT22;39812;52.430;16.936;2022-12-18T15:12:36;-4.00;99.90
53904;DHT22;39812;52.430;16.936;2022-12-18T15:15:02;-4.00;99.90
53904;DHT22;39812;52.430;16.936;2022-12-18T15:17:29;-4.10;99.90
53904;DHT22;39812;52.430;16.936;2022-12-18T15:20:07;-4.00;99.90
53904;DHT22;39812;52.430;16.936;2022-12-18T15:22:35;-4.00;99.90
53904;DHT22;39812;52.430;16.936;2022-12-18T15:25:02;-3.90;99.90
53904;DHT22;39812;52.430;16.936;2022-12-18T15:27:33;-3.90;99.90
53904;DHT22;39812;52.430;16.936;2022-12-18T15:32:30;-3.80;99.90
53904;DHT22;39812;52.430;16.936;2022-12-18T15:35:08;-3.80;99.90
53904;DHT22;39812;52.430;16.936;2022-12-18T15:37:40;-3.90;99.90
53904;DHT22;39812;52.430;16.936;2022-12-18T15:40:07;-3.90;99.90
53904;DHT22;39812;52.430;16.936;2022-12-18T15:42:33;-3.80;99.90
53904;DHT22;39812;52.430;16.936;2022-12-18T15:45:17;-3.90;99.90
53904;DHT22;39812;52.430;16.936;2022-12-18T15:47:43;-3.90;99.90
53904;DHT22;39812;52.430;16.936;2022-12-18T15:50:09;-4.00;99.90
53904;DHT22;39812;52.430;16.936;2022-12-18T15:52:44;-4.10;99.90
53904;DHT22;39812;52.430;16.936;2022-12-18T15:55:13;-4.30;99.90
53904;DHT22;39812;52.430;16.936;2022-12-18T15:57:57;-4.30;99.90
53904;DHT22;39812;52.430;16.936;2022-12-18T16:00:22;-4.20;99.90
53904;DHT22;39812;52.430;16.936;2022-12-18T16:02:48;-4.10;99.90
53904;DHT22;39812;52.430;16.936;2022-12-18T16:05:15;-4.10;99.90
53904;DHT22;39812;52.430;16.936;2022-12-18T16:07:42;-4.10;99.90
53904;DHT22;39812;52.430;16.936;2022-12-18T16:10:08;-4.10;99.90
53904;DHT22;39812;52.430;16.936;2022-12-18T16:12:34;-4.10;99.90
53904;DHT22;39812;52.430;16.936;2022-12-18T16:14:59;-4.20;99.90
53904;DHT22;39812;52.430;16.936;2022-12-18T16:17:25;-4.20;99.90
53904;DHT22;39812;52.430;16.936;2022-12-18T16:19:51;-4.20;99.90
53904;DHT22;39812;52.430;16.936;2022-12-18T16:22:25;-4.30;99.90
53904;DHT22;39812;52.430;16.936;2022-12-18T16:24:51;-4.30;99.90
53904;DHT22;39812;52.430;16.936;2022-12-18T16:27:18;-4.30;99.90
53904;DHT22;39812;52.430;16.936;2022-12-18T16:29:44;-4.30;99.90
53904;DHT22;39812;52.430;16.936;2022-12-18T16:32:16;-4.30;99.90
53904;DHT22;39812;52.430;16.936;2022-12-18T16:34:42;-4.30;99.90
53904;DHT22;39812;52.430;16.936;2022-12-18T16:37:10;-4.30;99.90
53904;DHT22;39812;52.430;16.936;2022-12-18T16:39:37;-4.20;99.90
53904;DHT22;39812;52.430;16.936;2022-12-18T16:44:34;-4.30;99.90
53904;DHT22;39812;52.430;16.936;2022-12-18T16:46:59;-4.30;99.90
53904;DHT22;39812;52.430;16.936;2022-12-18T16:49:27;-4.30;99.90
53904;DHT22;39812;52.430;16.936;2022-12-18T16:51:54;-4.30;99.90
53904;DHT22;39812;52.430;16.936;2022-12-18T16:54:20;-4.30;99.90
53904;DHT22;39812;52.430;16.936;2022-12-18T16:56:45;-4.30;99.90
53904;DHT22;39812;52.430;16.936;2022-12-18T16:59:14;-4.40;99.90
53904;DHT22;39812;52.430;16.936;2022-12-18T17:01:39;-4.40;99.90